createdAt,value
2018-05-10T00:00:43.074Z,7.70
2018-05-10T00:03:11.072Z,13.77
2018-05-10T00:05:39.188Z,10.97
2018-05-10T00:08:07.155Z,10.70
2018-05-10T00:10:35.165Z,5.57
2018-05-10T00:13:03.158Z,6.00
2018-05-10T00:15:31.178Z,7.57
2018-05-10T00:17:59.167Z,7.23
2018-05-10T00:20:27.167Z,7.70
2018-05-10T00:22:55.240Z,6.60
2018-05-10T00:25:24.054Z,6.40
2018-05-10T00:27:52.656Z,6.93
2018-05-10T00:30:20.648Z,8.20
2018-05-10T00:32:48.638Z,9.57
2018-05-10T00:35:16.653Z,8.07
2018-05-10T00:37:44.651Z,8.80
2018-05-10T00:40:13.356Z,6.50
2018-05-10T00:42:41.401Z,10.20
2018-05-10T00:45:09.421Z,6.53
2018-05-10T00:47:37.460Z,12.50
2018-05-10T00:50:05.480Z,9.17
2018-05-10T00:52:33.463Z,8.40
2018-05-10T00:55:01.541Z,6.63
2018-05-10T00:57:29.561Z,6.40
2018-05-10T00:59:57.548Z,8.80
2018-05-10T01:02:25.546Z,7.40
2018-05-10T01:04:53.657Z,8.57
2018-05-10T01:07:21.636Z,7.27
2018-05-10T01:09:49.671Z,6.93
2018-05-10T01:12:17.705Z,7.33
2018-05-10T01:14:45.714Z,7.97
2018-05-10T01:17:13.726Z,8.53
2018-05-10T01:19:41.731Z,9.50
2018-05-10T01:22:10.226Z,7.00
2018-05-10T01:24:38.232Z,8.17
2018-05-10T01:27:06.320Z,6.13
2018-05-10T01:29:35.056Z,7.23
2018-05-10T01:32:03.069Z,10.10
2018-05-10T01:34:31.083Z,7.43
2018-05-10T01:36:59.356Z,9.17
2018-05-10T01:39:27.431Z,8.43
2018-05-10T01:41:55.452Z,7.20
2018-05-10T01:44:23.456Z,10.23
2018-05-10T01:46:51.485Z,9.20
2018-05-10T01:49:19.575Z,8.93
2018-05-10T01:51:47.618Z,13.77
2018-05-10T01:54:15.615Z,9.03
2018-05-10T01:56:43.603Z,7.33
2018-05-10T01:59:11.568Z,6.53
2018-05-10T02:01:39.587Z,6.67
2018-05-10T02:04:07.601Z,7.50
2018-05-10T02:06:35.612Z,11.77
2018-05-10T02:09:03.581Z,7.27
2018-05-10T02:11:31.592Z,10.97
2018-05-10T02:13:59.740Z,11.00
2018-05-10T02:16:28.327Z,7.97
2018-05-10T02:18:56.364Z,13.10
2018-05-10T02:21:24.391Z,7.87
2018-05-10T02:23:52.376Z,7.90
2018-05-10T02:26:20.368Z,7.57
2018-05-10T02:28:48.381Z,11.20
2018-05-10T02:31:17.033Z,10.40
2018-05-10T02:33:45.041Z,8.40
2018-05-10T02:36:13.067Z,7.97
2018-05-10T02:38:41.070Z,8.80
2018-05-10T02:41:09.133Z,11.33
2018-05-10T02:43:37.085Z,12.80
2018-05-10T02:46:05.096Z,9.33
2018-05-10T02:48:33.087Z,12.60
2018-05-10T02:51:01.083Z,10.33
2018-05-10T02:53:29.064Z,12.10
2018-05-10T02:55:57.221Z,10.77
2018-05-10T02:58:25.226Z,7.93
2018-05-10T03:00:53.202Z,8.83
2018-05-10T03:03:21.209Z,11.30
2018-05-10T03:05:49.201Z,9.53
2018-05-10T03:08:17.536Z,15.03
2018-05-10T03:10:46.371Z,11.40
2018-05-10T03:13:14.385Z,10.07
2018-05-10T03:15:42.448Z,10.03
2018-05-10T03:18:10.528Z,8.47
2018-05-10T03:20:38.596Z,8.43
2018-05-10T03:23:06.562Z,8.10
2018-05-10T03:25:34.601Z,8.83
2018-05-10T03:28:02.556Z,9.73
2018-05-10T03:30:30.476Z,12.33
2018-05-10T03:32:58.465Z,11.10
2018-05-10T03:35:26.381Z,8.90
2018-05-10T03:37:54.320Z,12.60
2018-05-10T03:40:22.293Z,10.43
2018-05-10T03:42:50.204Z,9.33
2018-05-10T03:45:18.187Z,9.83
2018-05-10T03:47:46.104Z,9.37
2018-05-10T03:50:14.056Z,9.63
2018-05-10T03:52:42.042Z,9.20
2018-05-10T03:55:10.181Z,10.00
2018-05-10T03:57:38.852Z,8.17
2018-05-10T04:00:06.776Z,12.87
2018-05-10T04:02:46.655Z,9.67
2018-05-10T04:05:26.565Z,9.40
2018-05-10T04:11:01.811Z,10.27
2018-05-10T04:13:29.747Z,10.83
2018-05-10T04:15:57.667Z,14.13
2018-05-10T04:18:25.621Z,9.13
2018-05-10T04:20:53.568Z,12.53
2018-05-10T04:23:21.576Z,13.90
2018-05-10T04:25:49.508Z,13.03
2018-05-10T04:28:17.437Z,11.27
2018-05-10T04:30:45.400Z,11.33
2018-05-10T04:33:13.330Z,10.10
2018-05-10T04:35:41.477Z,10.50
2018-05-10T04:38:09.513Z,11.40
2018-05-10T04:40:37.486Z,12.00
2018-05-10T04:43:05.454Z,12.30
2018-05-10T04:45:33.394Z,11.17
2018-05-10T04:48:01.333Z,14.97
2018-05-10T04:50:29.256Z,10.27
2018-05-10T04:52:57.172Z,10.67
2018-05-10T04:55:25.321Z,11.50
2018-05-10T04:57:53.264Z,11.50
2018-05-10T05:00:21.204Z,10.47
2018-05-10T05:02:49.248Z,10.40
2018-05-10T05:05:17.337Z,11.00
2018-05-10T05:07:45.328Z,10.23
2018-05-10T05:10:13.263Z,11.30
2018-05-10T05:12:41.158Z,12.90
2018-05-10T05:15:09.112Z,12.10
2018-05-10T05:17:37.095Z,11.17
2018-05-10T05:20:05.069Z,11.37
2018-05-10T05:22:32.954Z,13.27
2018-05-10T05:25:01.621Z,14.43
2018-05-10T05:27:29.544Z,11.57
2018-05-10T05:29:57.675Z,11.23
2018-05-10T05:32:25.863Z,9.97
2018-05-10T05:37:38.908Z,14.10
2018-05-10T05:40:07.756Z,12.10
2018-05-10T05:42:35.662Z,11.40
2018-05-10T05:45:03.956Z,11.90
2018-05-10T05:47:31.890Z,13.33
2018-05-10T05:49:59.826Z,11.97
2018-05-10T05:52:28.280Z,12.07
2018-05-10T05:54:56.247Z,9.93
2018-05-10T05:57:24.161Z,9.67
2018-05-10T05:59:52.115Z,10.60
2018-05-10T06:02:20.143Z,11.83
2018-05-10T06:04:48.063Z,11.83
2018-05-10T06:07:16.030Z,11.73
2018-05-10T06:09:43.955Z,10.17
2018-05-10T06:12:12.695Z,11.20
2018-05-10T06:14:40.613Z,9.73
2018-05-10T06:17:08.622Z,12.93
2018-05-10T06:19:36.557Z,9.63
2018-05-10T06:22:04.489Z,10.10
2018-05-10T06:24:32.479Z,9.93
2018-05-10T06:27:00.431Z,10.53
2018-05-10T06:29:28.406Z,10.57
2018-05-10T06:31:56.314Z,10.00
2018-05-10T06:34:24.235Z,9.83
2018-05-10T06:36:52.272Z,11.40
2018-05-10T06:39:20.250Z,9.57
2018-05-10T06:41:48.189Z,11.20
2018-05-10T06:44:16.165Z,8.97
2018-05-10T06:46:44.175Z,10.20
2018-05-10T06:49:12.120Z,10.60
2018-05-10T06:51:40.214Z,9.87
2018-05-10T06:54:08.150Z,13.03
2018-05-10T06:56:36.065Z,12.30
2018-05-10T06:59:04.001Z,9.40
2018-05-10T07:01:31.975Z,11.77
2018-05-10T07:03:59.900Z,11.20
2018-05-10T07:06:27.906Z,10.37
2018-05-10T07:08:56.100Z,10.17
2018-05-10T07:11:24.011Z,10.17
2018-05-10T07:13:52.064Z,10.10
2018-05-10T07:16:19.994Z,10.77
2018-05-10T07:18:47.965Z,12.63
2018-05-10T07:21:16.629Z,8.60
2018-05-10T07:23:44.552Z,10.17
2018-05-10T07:26:12.589Z,9.47
2018-05-10T07:28:40.517Z,10.17
2018-05-10T07:31:08.468Z,11.97
2018-05-10T07:33:36.371Z,9.93
2018-05-10T07:36:05.224Z,10.03
2018-05-10T07:38:33.151Z,9.77
2018-05-10T07:41:01.111Z,8.40
2018-05-10T07:43:29.028Z,9.70
2018-05-10T07:45:56.985Z,17.43
2018-05-10T07:48:24.891Z,11.20
2018-05-10T07:50:52.834Z,9.00
2018-05-10T07:53:20.779Z,9.87
2018-05-10T07:55:48.739Z,9.50
2018-05-10T07:58:16.655Z,12.27
2018-05-10T08:00:44.578Z,11.80
2018-05-10T08:03:12.568Z,10.97
2018-05-10T08:05:40.500Z,10.43
2018-05-10T08:08:08.451Z,12.17
2018-05-10T08:10:36.421Z,8.80
2018-05-10T08:13:04.341Z,11.93
2018-05-10T08:15:32.275Z,9.60
2018-05-10T08:18:00.268Z,12.17
2018-05-10T08:20:28.375Z,9.87
2018-05-10T08:22:56.377Z,13.57
2018-05-10T08:25:24.297Z,12.20
2018-05-10T08:27:52.248Z,8.73
2018-05-10T08:30:20.251Z,12.10
2018-05-10T08:32:48.116Z,13.37
2018-05-10T08:35:17.120Z,12.07
2018-05-10T08:37:45.130Z,9.90
2018-05-10T08:40:13.044Z,9.27
2018-05-10T08:42:41.001Z,12.47
2018-05-10T08:45:08.986Z,10.17
2018-05-10T08:47:36.884Z,9.43
2018-05-10T08:50:05.570Z,8.33
2018-05-10T08:52:33.948Z,10.47
2018-05-10T08:55:02.353Z,10.53
2018-05-10T08:57:30.287Z,9.00
2018-05-10T08:59:59.009Z,10.43
2018-05-10T09:02:26.843Z,9.47
2018-05-10T09:04:54.788Z,10.20
2018-05-10T09:07:22.797Z,8.63
2018-05-10T09:09:50.610Z,9.23
2018-05-10T09:12:18.517Z,10.47
2018-05-10T09:14:46.436Z,11.40
2018-05-10T09:17:14.450Z,7.97
2018-05-10T09:19:42.465Z,9.40
2018-05-10T09:22:10.388Z,6.80
2018-05-10T09:24:38.331Z,8.70
2018-05-10T09:27:06.245Z,9.00
2018-05-10T09:29:34.200Z,8.97
2018-05-10T09:32:02.230Z,8.17
2018-05-10T09:34:30.199Z,7.87
2018-05-10T09:36:58.214Z,6.83
2018-05-10T09:39:26.644Z,11.57
2018-05-10T09:41:54.611Z,11.90
2018-05-10T09:44:22.525Z,6.13
2018-05-10T09:46:51.399Z,9.50
2018-05-10T09:49:20.051Z,7.20
2018-05-10T09:51:47.983Z,7.23
2018-05-10T09:54:16.031Z,8.23
2018-05-10T09:56:43.956Z,13.03
2018-05-10T09:59:11.880Z,8.00
2018-05-10T10:01:39.850Z,9.00
2018-05-10T10:04:07.788Z,6.93
2018-05-10T10:06:35.707Z,6.77
2018-05-10T10:09:03.676Z,6.80
2018-05-10T10:11:31.684Z,6.67
2018-05-10T10:13:59.573Z,7.93
2018-05-10T10:16:27.470Z,8.07
2018-05-10T10:18:55.380Z,6.53
2018-05-10T10:21:23.357Z,7.17
2018-05-10T10:23:51.215Z,6.47
2018-05-10T10:26:19.139Z,9.03
2018-05-10T10:28:47.111Z,9.83
2018-05-10T10:31:15.025Z,6.53
2018-05-10T10:33:42.955Z,10.10
2018-05-10T10:36:10.916Z,13.10
2018-05-10T10:38:38.824Z,9.07
2018-05-10T10:41:06.747Z,10.83
2018-05-10T10:43:34.707Z,7.47
2018-05-10T10:46:02.626Z,8.77
2018-05-10T10:48:30.561Z,7.67
2018-05-10T10:50:58.475Z,6.23
2018-05-10T10:53:26.421Z,7.23
2018-05-10T10:55:54.370Z,7.70
2018-05-10T10:58:22.284Z,11.60
2018-05-10T11:00:50.204Z,14.03
2018-05-10T11:03:18.208Z,5.70
2018-05-10T11:05:46.150Z,6.73
2018-05-10T11:08:14.074Z,12.40
2018-05-10T11:10:42.067Z,12.40
2018-05-10T11:13:10.134Z,6.57
2018-05-10T11:15:38.680Z,7.63
2018-05-10T11:18:06.763Z,11.30
2018-05-10T11:20:34.694Z,9.03
2018-05-10T11:23:02.608Z,8.50
2018-05-10T11:25:30.629Z,7.40
2018-05-10T11:27:58.541Z,9.27
2018-05-10T11:30:26.561Z,8.90
2018-05-10T11:32:54.616Z,9.00
2018-05-10T11:35:22.447Z,7.53
2018-05-10T11:37:50.366Z,9.10
2018-05-10T11:40:18.286Z,9.70
2018-05-10T11:42:46.220Z,11.27
2018-05-10T11:45:14.137Z,7.43
2018-05-10T11:47:42.127Z,9.70
2018-05-10T11:50:10.072Z,8.67
2018-05-10T11:52:37.985Z,9.40
2018-05-10T11:55:05.891Z,10.47
2018-05-10T11:57:33.848Z,12.20
2018-05-10T12:00:01.787Z,8.93
2018-05-10T12:02:29.751Z,13.60
2018-05-10T12:04:57.718Z,13.33
2018-05-10T12:07:25.633Z,9.37
2018-05-10T12:09:53.588Z,9.27
2018-05-10T12:12:21.676Z,10.70
2018-05-10T12:14:49.576Z,11.20
2018-05-10T12:17:17.497Z,10.33
2018-05-10T12:19:45.414Z,10.20
2018-05-10T12:22:13.433Z,10.50
2018-05-10T12:24:41.333Z,7.90
2018-05-10T12:27:09.284Z,10.17
2018-05-10T12:29:37.287Z,9.57
2018-05-10T12:32:05.185Z,11.07
2018-05-10T12:34:33.210Z,9.73
2018-05-10T12:37:01.189Z,8.57
2018-05-10T12:39:29.115Z,11.43
2018-05-10T12:41:57.226Z,10.63
2018-05-10T12:44:25.261Z,9.03
2018-05-10T12:46:53.180Z,12.37
2018-05-10T12:49:21.101Z,9.50
2018-05-10T12:51:49.028Z,11.20
2018-05-10T12:54:16.951Z,11.07
2018-05-10T12:56:44.860Z,7.97
2018-05-10T12:59:12.794Z,11.77
2018-05-10T13:01:40.740Z,12.57
2018-05-10T13:04:08.725Z,9.00
2018-05-10T13:06:36.826Z,7.77
2018-05-10T13:09:04.824Z,10.60
2018-05-10T13:11:32.908Z,10.63
2018-05-10T13:14:00.798Z,10.63
2018-05-10T13:16:28.805Z,9.10
2018-05-10T13:18:56.749Z,9.40
2018-05-10T13:21:24.667Z,10.83
2018-05-10T13:23:52.581Z,10.00
2018-05-10T13:26:20.486Z,9.60
2018-05-10T13:28:48.443Z,8.43
2018-05-10T13:31:16.420Z,10.83
2018-05-10T13:33:44.468Z,11.70
2018-05-10T13:36:12.384Z,10.87
2018-05-10T13:38:40.336Z,11.77
2018-05-10T13:41:08.427Z,10.50
2018-05-10T13:43:36.356Z,11.80
2018-05-10T13:46:04.282Z,9.50
2018-05-10T13:48:32.219Z,8.93
2018-05-10T13:51:00.130Z,9.50
2018-05-10T13:53:28.064Z,14.97
2018-05-10T13:55:56.505Z,12.33
2018-05-10T13:58:24.413Z,9.37
2018-05-10T14:00:52.325Z,11.13
2018-05-10T14:03:20.247Z,10.37
2018-05-10T14:05:48.307Z,11.30
2018-05-10T14:08:16.276Z,8.67
2018-05-10T14:10:44.201Z,10.50
2018-05-10T14:13:12.136Z,7.57
2018-05-10T14:15:40.060Z,14.20
2018-05-10T14:18:07.980Z,9.30
2018-05-10T14:20:36.118Z,5.73
2018-05-10T14:23:04.097Z,11.67
2018-05-10T14:25:32.036Z,12.93
2018-05-10T14:27:59.974Z,8.47
2018-05-10T14:30:27.889Z,7.67
2018-05-10T14:32:55.895Z,9.37
2018-05-10T14:35:23.781Z,14.13
2018-05-10T14:37:51.738Z,8.23
2018-05-10T14:40:19.652Z,8.47
2018-05-10T14:42:47.547Z,8.53
2018-05-10T14:45:15.649Z,6.23
2018-05-10T14:47:43.644Z,8.23
2018-05-10T14:50:11.580Z,7.87
2018-05-10T14:52:39.484Z,6.67
2018-05-10T14:55:07.387Z,9.33
2018-05-10T14:57:35.402Z,8.57
2018-05-10T15:00:03.324Z,7.53
2018-05-10T15:02:31.320Z,8.10
2018-05-10T15:04:59.233Z,10.23
2018-05-10T15:07:27.204Z,10.40
2018-05-10T15:09:55.234Z,8.50
2018-05-10T15:12:23.081Z,13.60
2018-05-10T15:14:50.999Z,13.27
2018-05-10T15:17:18.915Z,10.90
2018-05-10T15:19:46.856Z,12.80
2018-05-10T15:22:14.855Z,10.20
2018-05-10T15:24:42.773Z,10.67
2018-05-10T15:27:11.110Z,7.73
2018-05-10T15:29:39.019Z,8.37
2018-05-10T15:32:06.984Z,11.50
2018-05-10T15:34:34.892Z,15.03
2018-05-10T15:37:02.830Z,11.93
2018-05-10T15:39:30.757Z,7.13
2018-05-10T15:41:58.685Z,12.80
2018-05-10T15:44:26.611Z,7.63
2018-05-10T15:46:54.537Z,9.20
2018-05-10T15:49:22.469Z,10.23
2018-05-10T15:51:50.486Z,8.10
2018-05-10T15:54:18.434Z,9.27
2018-05-10T15:56:46.472Z,11.60
2018-05-10T15:59:14.440Z,9.70
2018-05-10T16:01:42.347Z,11.57
2018-05-10T16:04:10.406Z,12.20
2018-05-10T16:06:38.307Z,10.10
2018-05-10T16:09:06.405Z,7.23
2018-05-10T16:11:34.654Z,12.13
2018-05-10T16:14:02.559Z,13.30
2018-05-10T16:16:30.493Z,9.10
2018-05-10T16:18:58.444Z,11.20
2018-05-10T16:21:26.468Z,12.70
2018-05-10T16:23:54.380Z,11.50
2018-05-10T16:26:22.317Z,12.53
2018-05-10T16:28:50.234Z,12.40
2018-05-10T16:31:18.900Z,14.53
2018-05-10T16:33:46.853Z,19.97
2018-05-10T16:36:14.799Z,33.27
2018-05-10T16:38:42.752Z,16.33
2018-05-10T16:41:10.694Z,15.77
2018-05-10T16:43:38.600Z,13.73
2018-05-10T16:46:06.669Z,16.17
2018-05-10T16:48:34.681Z,11.77
2018-05-10T16:51:02.609Z,18.03
2018-05-10T16:53:30.598Z,11.77
2018-05-10T16:55:58.477Z,11.50
2018-05-10T16:58:26.407Z,12.87
2018-05-10T17:00:54.383Z,11.43
2018-05-10T17:03:22.272Z,11.13
2018-05-10T17:05:50.244Z,11.50
2018-05-10T17:08:18.150Z,10.13
2018-05-10T17:10:46.090Z,11.03
2018-05-10T17:13:13.997Z,12.30
2018-05-10T17:15:41.966Z,10.67
2018-05-10T17:18:09.874Z,9.97
2018-05-10T17:20:37.788Z,11.30
2018-05-10T17:23:05.722Z,11.93
2018-05-10T17:25:33.722Z,14.83
2018-05-10T17:28:01.636Z,9.83
2018-05-10T17:30:29.553Z,10.57
2018-05-10T17:32:57.469Z,11.07
2018-05-10T17:35:25.400Z,13.90
2018-05-10T17:37:53.317Z,11.40
2018-05-10T17:40:21.279Z,10.00
2018-05-10T17:42:49.194Z,11.47
2018-05-10T17:45:17.119Z,15.23
2018-05-10T17:47:45.070Z,14.00
2018-05-10T17:50:13.035Z,16.33
2018-05-10T17:52:40.967Z,14.77
2018-05-10T17:55:08.972Z,14.97
2018-05-10T17:57:36.912Z,13.83
2018-05-10T18:00:04.842Z,21.13
2018-05-10T18:02:32.807Z,20.53
2018-05-10T18:05:00.760Z,19.50
2018-05-10T18:07:28.719Z,21.73
2018-05-10T18:09:56.834Z,21.27
2018-05-10T18:12:24.767Z,18.83
2018-05-10T18:14:52.701Z,20.80
2018-05-10T18:17:20.710Z,20.90
2018-05-10T18:19:48.648Z,25.63
2018-05-10T18:22:16.594Z,22.70
2018-05-10T18:24:44.541Z,25.03
2018-05-10T18:27:12.474Z,26.57
2018-05-10T18:29:40.398Z,19.50
2018-05-10T18:32:08.387Z,17.40
2018-05-10T18:34:36.378Z,24.03
2018-05-10T18:37:04.385Z,17.30
2018-05-10T18:39:32.324Z,18.57
2018-05-10T18:42:00.325Z,17.47
2018-05-10T18:44:28.317Z,21.40
2018-05-10T18:46:56.274Z,20.47
2018-05-10T18:49:24.206Z,14.77
2018-05-10T18:51:52.131Z,16.60
2018-05-10T18:54:20.055Z,17.00
2018-05-10T18:56:47.985Z,15.53
2018-05-10T18:59:15.923Z,15.00
2018-05-10T19:01:43.837Z,19.43
2018-05-10T19:04:11.764Z,11.87
2018-05-10T19:06:39.696Z,16.90
2018-05-10T19:09:07.640Z,14.23
2018-05-10T19:11:35.573Z,14.37
2018-05-10T19:14:03.496Z,15.80
2018-05-10T19:16:31.577Z,22.30
2018-05-10T19:18:59.751Z,25.53
2018-05-10T19:21:27.640Z,19.07
2018-05-10T19:23:55.589Z,20.27
2018-05-10T19:26:23.582Z,20.60
2018-05-10T19:28:51.454Z,23.00
2018-05-10T19:31:19.401Z,25.00
2018-05-10T19:33:47.326Z,27.20
2018-05-10T19:36:15.280Z,30.60
2018-05-10T19:38:43.177Z,31.67
2018-05-10T19:41:11.113Z,35.53
2018-05-10T19:43:39.026Z,36.47
2018-05-10T19:46:06.968Z,42.73
2018-05-10T19:48:34.895Z,42.87
2018-05-10T19:51:02.829Z,46.30
2018-05-10T19:53:30.814Z,43.43
2018-05-10T19:55:58.815Z,42.27
2018-05-10T19:58:26.818Z,41.63
2018-05-10T20:00:54.745Z,41.30
2018-05-10T20:03:22.650Z,37.97
2018-05-10T20:05:50.638Z,34.17
2018-05-10T20:08:18.592Z,34.23
2018-05-10T20:10:46.513Z,34.10
2018-05-10T20:13:14.484Z,33.93
2018-05-10T20:15:42.401Z,33.23
2018-05-10T20:18:10.362Z,34.47
2018-05-10T20:20:38.466Z,35.07
2018-05-10T20:23:06.381Z,39.20
2018-05-10T20:25:34.335Z,45.47
2018-05-10T20:28:02.441Z,49.00
2018-05-10T20:30:30.552Z,50.97
2018-05-10T20:32:58.454Z,53.37
2018-05-10T20:35:26.555Z,52.33
2018-05-10T20:37:55.037Z,51.63
2018-05-10T20:40:22.955Z,51.27
2018-05-10T20:42:50.870Z,50.50
2018-05-10T20:45:18.780Z,49.17
2018-05-10T20:47:46.704Z,47.27
2018-05-10T20:50:14.625Z,48.53
2018-05-10T20:52:42.565Z,44.50
2018-05-10T20:55:10.513Z,48.13
2018-05-10T20:57:38.412Z,46.90
2018-05-10T21:00:06.352Z,45.43
2018-05-10T21:02:34.344Z,44.90
2018-05-10T21:05:02.393Z,45.40
2018-05-10T21:07:30.353Z,44.97
2018-05-10T21:09:58.344Z,43.87
2018-05-10T21:12:38.143Z,45.73
2018-05-10T21:15:06.093Z,45.20
2018-05-10T21:17:34.028Z,45.27
2018-05-10T21:20:02.584Z,47.30
2018-05-10T21:22:30.513Z,46.03
2018-05-10T21:24:58.673Z,46.00
2018-05-10T21:27:26.623Z,47.27
2018-05-10T21:29:54.635Z,48.13
2018-05-10T21:32:22.548Z,47.40
2018-05-10T21:34:50.509Z,46.60
2018-05-10T21:37:18.479Z,46.30
2018-05-10T21:39:46.434Z,47.33
2018-05-10T21:42:14.383Z,45.47
2018-05-10T21:44:42.479Z,46.37
2018-05-10T21:47:11.232Z,43.73
2018-05-10T21:49:50.949Z,42.30
2018-05-10T21:52:18.968Z,34.90
2018-05-10T21:54:46.920Z,36.43
2018-05-10T21:57:14.872Z,36.80
2018-05-10T21:59:42.837Z,33.03
2018-05-10T22:02:10.846Z,36.37
2018-05-10T22:04:38.780Z,35.97
2018-05-10T22:07:06.763Z,36.97
2018-05-10T22:09:34.720Z,35.63
2018-05-10T22:12:02.800Z,32.23
2018-05-10T22:14:30.620Z,31.40
2018-05-10T22:16:58.558Z,30.20
2018-05-10T22:19:26.544Z,31.57
2018-05-10T22:21:54.479Z,25.03
2018-05-10T22:24:22.385Z,25.00
2018-05-10T22:26:50.590Z,27.23
2018-05-10T22:29:18.554Z,24.67
2018-05-10T22:31:46.471Z,23.37
2018-05-10T22:34:14.420Z,22.53
2018-05-10T22:36:42.488Z,23.80
2018-05-10T22:39:10.432Z,25.07
2018-05-10T22:41:38.358Z,22.33
2018-05-10T22:44:06.537Z,20.57
2018-05-10T22:46:34.503Z,20.07
2018-05-10T22:49:02.448Z,22.63
2018-05-10T22:51:30.445Z,21.17
2018-05-10T22:53:58.384Z,21.37
2018-05-10T22:56:27.126Z,19.13
2018-05-10T22:58:55.255Z,18.00
2018-05-10T23:01:23.197Z,18.53
2018-05-10T23:03:51.130Z,17.03
2018-05-10T23:06:19.080Z,14.90
2018-05-10T23:08:47.049Z,16.90
2018-05-10T23:11:15.016Z,17.33
2018-05-10T23:13:43.089Z,13.47
2018-05-10T23:16:11.295Z,12.67
2018-05-10T23:18:39.196Z,11.60
2018-05-10T23:21:07.194Z,12.83
2018-05-10T23:23:35.248Z,13.47
2018-05-10T23:26:03.195Z,14.83
2018-05-10T23:28:31.107Z,17.50
2018-05-10T23:30:59.390Z,17.80
2018-05-10T23:33:27.306Z,14.83
2018-05-10T23:35:55.267Z,22.77
2018-05-10T23:38:23.180Z,18.87
2018-05-10T23:40:51.117Z,19.93
2018-05-10T23:43:19.038Z,18.50
2018-05-10T23:45:46.993Z,22.40
2018-05-10T23:48:14.959Z,16.67
2018-05-10T23:50:43.564Z,14.67
2018-05-10T23:53:11.476Z,16.83
2018-05-10T23:55:39.480Z,15.17
2018-05-10T23:58:07.397Z,15.33
